createdAt,value
2022-11-24T00:14:20.079Z,97073.53
2022-11-24T00:44:24.211Z,97086.03
2022-11-24T01:14:28.679Z,97129.97
2022-11-24T01:44:33.437Z,97148.91
2022-11-24T02:14:39.449Z,97166.31
2022-11-24T02:44:52.467Z,97170.59
2022-11-24T03:14:56.678Z,97174.13
2022-11-24T03:45:11.787Z,97202.84
2022-11-24T04:15:25.008Z,97210.19
2022-11-24T04:45:30.200Z,97220.41
2022-11-24T05:15:34.569Z,97252.19
2022-11-24T05:45:39.032Z,97277.34
2022-11-24T06:15:43.362Z,97307.09
2022-11-24T06:45:52.347Z,97321.59
2022-11-24T07:15:56.583Z,97349.56
2022-11-24T07:46:00.966Z,97406.81
2022-11-24T08:16:11.133Z,97446.13
2022-11-24T08:46:17.587Z,97479.34
2022-11-24T09:16:24.255Z,97521.31
2022-11-24T09:46:31.863Z,97567.66
2022-11-24T10:16:45.545Z,97582.34
2022-11-24T10:46:49.843Z,97596.66
2022-11-24T11:16:55.221Z,97628.28
2022-11-24T11:47:00.227Z,97652.22
2022-11-24T12:17:08.425Z,97658.97
2022-11-24T12:47:16.180Z,97676.44
2022-11-24T13:17:38.305Z,97697.47
2022-11-24T13:47:53.943Z,97705.75
2022-11-24T14:17:58.152Z,97717.59
2022-11-24T14:48:02.323Z,97733.69
2022-11-24T15:18:07.396Z,97733.66
2022-11-24T15:48:17.563Z,97752.50
2022-11-24T16:18:22.258Z,97770.44
2022-11-24T16:48:26.476Z,97780.28
2022-11-24T17:18:30.636Z,97797.41
2022-11-24T17:48:36.597Z,97799.31
2022-11-24T18:18:42.849Z,97816.78
2022-11-24T18:48:48.992Z,97798.91
2022-11-24T19:18:54.576Z,97780.63
2022-11-24T19:49:00.777Z,97787.53
2022-11-24T20:19:07.246Z,97809.06
2022-11-24T20:49:13.969Z,97796.53
2022-11-24T21:19:19.106Z,97817.94
2022-11-24T21:49:23.327Z,97822.44
2022-11-24T22:19:27.474Z,97805.63
2022-11-24T22:49:32.683Z,97785.38
2022-11-24T23:19:36.864Z,97790.22
2022-11-24T23:49:41.065Z,97794.28
